Time;durP1;ratioP1;P1;durP2;ratioP2;P2;SDS_P1;SDS_P2;PMS_P1;PMS_P2;Temp;Humidity;BMP_temperature;BMP_pressure;BME280_temperature;BME280_humidity;BME280_pressure;Samples;Min_cycle;Max_cycle;Signal;HPM_P1;HPM_P2
2023/01/26 00:00:50;;;;;;;27.17;11.95;;;;;;;-10.52;71.85;100601.84;4793285;29;20141;-85
2023/01/26 00:03:16;;;;;;;35.58;11.45;;;;;;;-10.53;72.10;100588.03;4793307;29;20507;-84
2023/01/26 00:05:43;;;;;;;29.48;10.80;;;;;;;-10.43;71.53;100567.59;4796361;29;20050;-85
2023/01/26 00:08:11;;;;;;;31.15;11.93;;;;;;;-10.41;71.65;100578.84;4800629;29;20047;-85
2023/01/26 00:10:39;;;;;;;32.00;11.73;;;;;;;-10.37;71.38;100562.56;4780545;29;20046;-86
2023/01/26 00:13:06;;;;;;;23.73;9.93;;;;;;;-10.49;71.87;100559.66;4777486;29;20108;-86
2023/01/26 00:15:33;;;;;;;33.85;12.23;;;;;;;-10.52;71.45;100561.34;4777303;29;20055;-85
2023/01/26 00:17:59;;;;;;;29.13;12.20;;;;;;;-10.46;72.02;100536.50;4777515;29;20058;-87
2023/01/26 00:20:27;;;;;;;25.67;10.40;;;;;;;-10.43;71.75;100536.56;4792400;29;20113;-86
2023/01/26 00:22:53;;;;;;;30.30;11.43;;;;;;;-10.45;72.10;100533.09;4792401;29;20065;-86
2023/01/26 00:25:19;;;;;;;34.15;11.95;;;;;;;-10.41;72.13;100537.50;4777901;29;20526;-87
2023/01/26 00:27:45;;;;;;;31.35;12.35;;;;;;;-10.38;71.97;100524.63;4792374;29;20062;-86
2023/01/26 00:30:11;;;;;;;27.33;11.98;;;;;;;-10.42;72.19;100522.78;4808740;29;20419;-86
2023/01/26 00:32:37;;;;;;;27.85;11.73;;;;;;;-10.47;72.04;100527.00;4795314;29;20054;-88
2023/01/26 00:35:05;;;;;;;35.13;12.80;;;;;;;-10.40;72.22;100527.19;4798818;29;20615;-84
2023/01/26 00:37:32;;;;;;;32.20;12.38;;;;;;;-10.40;71.79;100516.84;4792981;29;20051;-85
2023/01/26 00:39:57;;;;;;;30.38;12.65;;;;;;;-10.37;72.04;100521.22;4777844;29;20067;-84
2023/01/26 00:42:23;;;;;;;25.52;11.73;;;;;;;-10.41;72.12;100515.09;4807805;29;20046;-83
2023/01/26 00:44:50;;;;;;;29.15;11.15;;;;;;;-10.37;71.99;100518.63;4792707;29;20058;-83
2023/01/26 00:47:17;;;;;;;36.78;12.70;;;;;;;-10.47;72.27;100524.41;4808178;29;20047;-85
2023/01/26 00:49:44;;;;;;;32.78;11.32;;;;;;;-10.48;72.10;100522.66;4792397;29;20503;-85
2023/01/26 00:52:11;;;;;;;31.27;13.18;;;;;;;-10.43;72.35;100524.50;4777107;29;20051;-86
2023/01/26 00:54:38;;;;;;;33.25;11.55;;;;;;;-10.41;72.63;100512.50;4777285;29;20495;-86
2023/01/26 00:57:03;;;;;;;34.15;12.90;;;;;;;-10.42;72.54;100522.78;4777183;29;20046;-85
2023/01/26 00:59:31;;;;;;;29.45;14.13;;;;;;;-10.38;72.54;100511.69;4777181;29;20146;-85
2023/01/26 01:02:00;;;;;;;33.28;13.13;;;;;;;-10.37;72.54;100490.19;4792164;29;20051;-85
2023/01/26 01:04:25;;;;;;;32.80;13.82;;;;;;;-10.24;72.60;100509.41;4794720;29;20067;-84
2023/01/26 01:06:51;;;;;;;33.78;11.88;;;;;;;-10.24;71.77;100505.09;4796646;29;20050;-85
2023/01/26 01:09:17;;;;;;;39.75;17.73;;;;;;;-10.26;71.76;100506.81;4794185;29;20054;-85
2023/01/26 01:11:44;;;;;;;55.20;16.80;;;;;;;-10.33;71.62;100492.88;4791636;29;20432;-84
2023/01/26 01:14:12;;;;;;;51.53;18.88;;;;;;;-10.36;71.36;100491.94;4791637;29;20533;-87
2023/01/26 01:16:39;;;;;;;54.67;20.75;;;;;;;-10.21;71.83;100507.75;4791343;29;20058;-86
2023/01/26 01:19:05;;;;;;;54.22;21.05;;;;;;;-10.19;70.93;100493.16;4776814;29;20043;-85
2023/01/26 01:21:31;;;;;;;55.03;20.42;;;;;;;-10.18;71.14;100487.16;4806365;29;20065;-86
2023/01/26 01:23:58;;;;;;;60.55;22.55;;;;;;;-10.23;70.80;100486.16;4806416;29;20051;-86
2023/01/26 01:26:25;;;;;;;62.08;20.48;;;;;;;-10.14;71.02;100491.53;4806059;29;20057;-85
2023/01/26 01:28:57;;;;;;;56.88;20.33;;;;;;;-10.17;70.57;100494.06;4776231;29;20058;-86
2023/01/26 01:31:24;;;;;;;50.20;19.90;;;;;;;-10.21;70.47;100492.25;4807423;29;20051;-85
2023/01/26 01:33:52;;;;;;;52.42;19.98;;;;;;;-10.31;70.27;100491.19;4806120;29;20046;-84
2023/01/26 01:36:17;;;;;;;48.72;18.75;;;;;;;-10.28;70.42;100490.38;4807144;29;20085;-86
2023/01/26 01:38:45;;;;;;;51.60;19.05;;;;;;;-10.27;70.88;100486.94;4806275;29;20082;-85
2023/01/26 01:41:13;;;;;;;49.75;17.77;;;;;;;-10.30;70.42;100492.94;4791346;29;20588;-85
2023/01/26 01:43:39;;;;;;;60.67;19.02;;;;;;;-10.29;70.75;100489.53;4791615;29;20415;-85
2023/01/26 01:46:28;;;;;;;47.45;19.02;;;;;;;-10.41;70.71;100472.88;4790907;29;20053;-85
2023/01/26 01:48:58;;;;;;;37.00;15.45;;;;;;;-10.40;70.55;100482.38;4776614;29;20490;-85
2023/01/26 01:51:33;;;;;;;36.17;15.02;;;;;;;-10.48;70.72;100463.25;4806518;29;20043;-84
2023/01/26 01:54:04;;;;;;;35.28;13.27;;;;;;;-10.51;71.45;100466.63;4791239;29;20047;-86
2023/01/26 01:56:32;;;;;;;44.20;15.93;;;;;;;-10.53;71.02;100460.53;4807689;29;20059;-85
2023/01/26 01:59:01;;;;;;;50.47;17.48;;;;;;;-10.49;71.27;100467.53;4791159;29;20146;-86
2023/01/26 02:01:28;;;;;;;48.28;18.92;;;;;;;-10.53;71.15;100453.66;4790875;29;20423;-85
2023/01/26 02:03:58;;;;;;;41.60;16.75;;;;;;;-10.42;71.19;100466.81;4790809;29;20105;-85
2023/01/26 02:06:32;;;;;;;51.50;19.52;;;;;;;-10.44;71.18;100457.28;4775830;29;20043;-86
2023/01/26 02:08:59;;;;;;;56.83;20.90;;;;;;;-10.41;71.51;100457.38;4791237;29;20568;-87
2023/01/26 02:11:40;;;;;;;52.80;20.83;;;;;;;-10.42;71.60;100456.47;4775846;29;20054;-85
2023/01/26 02:14:10;;;;;;;61.85;23.98;;;;;;;-10.41;71.65;100426.34;4790809;29;20077;-86
2023/01/26 02:16:38;;;;;;;51.10;19.48;;;;;;;-10.54;71.10;100414.88;4775373;29;20102;-86
2023/01/26 02:19:11;;;;;;;51.17;19.87;;;;;;;-10.48;71.23;100432.22;4790490;29;20047;-85
2023/01/26 02:21:42;;;;;;;65.57;21.67;;;;;;;-10.52;71.33;100419.22;4775585;29;20071;-85
2023/01/26 02:24:21;;;;;;;58.70;20.83;;;;;;;-10.44;71.13;100418.53;4790277;29;20050;-86
2023/01/26 02:26:48;;;;;;;40.63;19.23;;;;;;;-10.63;71.56;100405.22;4775477;29;20582;-85
2023/01/26 02:29:14;;;;;;;53.35;17.63;;;;;;;-10.63;71.68;100415.53;4775399;29;20133;-87
2023/01/26 02:31:43;;;;;;;53.90;20.88;;;;;;;-10.40;71.58;100434.13;4807759;29;20061;-87
2023/01/26 02:34:10;;;;;;;52.92;19.20;;;;;;;-10.40;71.63;100417.75;4806685;29;20142;-86
2023/01/26 02:36:36;;;;;;;51.30;20.55;;;;;;;-10.45;72.21;100401.28;4795205;29;20123;-84
2023/01/26 02:39:24;;;;;;;41.42;16.45;;;;;;;-10.49;72.45;100408.09;4791897;29;20046;-85
2023/01/26 02:44:40;;;;;;;56.33;20.55;;;;;;;-10.39;72.32;100411.75;4791027;29;20082;-85
2023/01/26 02:47:15;;;;;;;53.85;21.63;;;;;;;-10.32;72.15;100405.88;4775895;29;20047;-86
2023/01/26 02:49:49;;;;;;;46.15;17.90;;;;;;;-10.28;72.07;100407.66;4775957;29;20046;-85
2023/01/26 02:52:21;;;;;;;49.53;20.23;;;;;;;-10.36;71.96;100410.09;4761703;30;20071;-85
2023/01/26 02:57:40;;;;;;;27.80;14.05;;;;;;;-10.33;71.67;100406.72;4736182;30;20044;-86
2023/01/26 03:00:13;;;;;;;47.65;18.85;;;;;;;-10.23;72.02;100421.53;4757552;30;20052;-86
2023/01/26 03:02:54;;;;;;;62.83;19.38;;;;;;;-10.29;71.83;100422.31;4735607;30;20059;-86
2023/01/26 03:05:20;;;;;;;47.60;16.70;;;;;;;-10.28;71.83;100415.41;4750178;30;20060;-85
2023/01/26 03:07:46;;;;;;;48.47;18.75;;;;;;;-10.30;71.61;100417.13;4720573;30;20060;-84
2023/01/26 03:10:14;;;;;;;49.65;19.25;;;;;;;-10.25;71.95;100422.38;4735701;30;20458;-84
2023/01/26 03:12:41;;;;;;;49.67;17.05;;;;;;;-10.32;72.26;100405.88;4744290;30;20134;-85
2023/01/26 03:27:25;;;;;;;53.95;18.83;;;;;;;-10.17;72.02;100411.31;4750300;30;20151;-85
2023/01/26 03:29:06;;;;;;;38.88;13.68;;;;;;;-10.15;72.25;100399.31;4772118;30;20058;-84
2023/01/26 03:31:32;;;;;;;29.55;11.43;;;;;;;-10.13;72.86;100417.41;4786977;30;20161;-88
2023/01/26 03:33:59;;;;;;;39.63;12.50;;;;;;;-10.19;72.95;100405.25;4798855;29;20053;-86
2023/01/26 03:36:25;;;;;;;27.83;13.43;;;;;;;-10.07;72.79;100423.59;4790184;29;20562;-90
2023/01/26 03:38:52;;;;;;;36.17;14.77;;;;;;;-10.03;72.61;100417.66;4776709;29;20106;-89
2023/01/26 03:57:52;;;;;;;22.58;10.80;;;;;;;-10.37;73.58;100418.69;4789656;29;20054;-85
2023/01/26 04:00:18;;;;;;;21.95;8.70;;;;;;;-10.40;73.09;100410.00;4790160;29;20043;-82
2023/01/26 04:08:20;;;;;;;30.00;12.07;;;;;;;-10.35;73.81;100410.97;4795788;29;20070;-89
2023/01/26 04:10:46;;;;;;;25.48;11.82;;;;;;;-10.34;73.83;100412.69;4784437;29;20046;-86
2023/01/26 04:21:39;;;;;;;23.85;6.40;;;;;;;-10.26;73.32;100408.59;4783509;29;20067;-84
2023/01/26 04:24:13;;;;;;;30.10;11.15;;;;;;;-10.22;73.33;100418.13;4770114;30;20468;-88
2023/01/26 04:26:50;;;;;;;26.90;9.73;;;;;;;-10.19;74.95;100419.88;4750909;30;20084;-86
2023/01/26 04:29:24;;;;;;;24.92;9.45;;;;;;;-10.10;75.09;100397.66;4807271;24;20069;-86
2023/01/26 04:31:50;;;;;;;28.45;11.38;;;;;;;-10.04;74.33;100402.06;4792633;29;20051;-84
2023/01/26 04:34:19;;;;;;;23.75;10.30;;;;;;;-9.97;73.71;100421.19;4793739;30;20062;-86
2023/01/26 04:36:45;;;;;;;27.08;10.77;;;;;;;-9.99;73.64;100409.94;4779224;30;20046;-88
2023/01/26 04:39:13;;;;;;;16.95;7.05;;;;;;;-9.94;73.01;100416.06;4787712;30;20057;-85
2023/01/26 04:41:43;;;;;;;30.35;11.50;;;;;;;-10.05;72.85;100415.84;4790263;30;20083;-85
2023/01/26 04:44:12;;;;;;;24.48;10.73;;;;;;;-10.11;73.18;100416.63;4773331;30;20150;-83
2023/01/26 04:46:39;;;;;;;24.30;10.23;;;;;;;-10.11;73.07;100419.22;4763179;30;20058;-85
2023/01/26 04:49:05;;;;;;;37.75;10.45;;;;;;;-10.22;73.53;100406.91;4756365;30;20081;-84
2023/01/26 04:51:32;;;;;;;24.63;9.95;;;;;;;-10.20;73.36;100416.41;4773305;30;20500;-83
2023/01/26 04:54:00;;;;;;;25.17;10.10;;;;;;;-10.09;73.18;100409.75;4779226;30;20069;-93
2023/01/26 04:56:31;;;;;;;27.33;10.57;;;;;;;-10.07;72.85;100408.09;4779680;30;20493;-93
2023/01/26 04:59:00;;;;;;;19.33;7.63;;;;;;;-10.06;73.04;100412.41;4770560;30;20113;-92
2023/01/26 05:01:27;;;;;;;20.63;9.68;;;;;;;-10.10;72.46;100396.81;4767060;30;20485;-89
2023/01/26 05:03:53;;;;;;;25.10;10.50;;;;;;;-10.03;72.22;100393.50;4780088;30;20054;-91
2023/01/26 05:06:19;;;;;;;24.00;10.98;;;;;;;-9.91;72.59;100409.25;4785719;30;20044;-89
2023/01/26 05:08:47;;;;;;;28.00;9.18;;;;;;;-9.92;72.09;100393.72;4772791;30;20051;-92
2023/01/26 05:11:13;;;;;;;27.35;10.27;;;;;;;-9.90;72.02;100404.94;4784051;30;20047;-90
2023/01/26 05:13:58;;;;;;;23.45;8.88;;;;;;;-9.77;71.68;100403.47;4799273;30;20057;-86
2023/01/26 05:16:34;;;;;;;20.95;9.32;;;;;;;-9.84;71.30;100389.56;4769740;30;20067;-87
2023/01/26 05:19:06;;;;;;;23.73;9.40;;;;;;;-9.73;71.09;100387.16;4777381;30;20051;-88
2023/01/26 05:21:50;;;;;;;23.73;10.48;;;;;;;-9.73;70.53;100400.97;4779107;30;20081;-89
2023/01/26 05:24:16;;;;;;;19.33;7.45;;;;;;;-9.76;70.52;100398.31;4797674;29;20062;-90
2023/01/26 05:26:42;;;;;;;25.45;9.27;;;;;;;-9.71;70.31;100391.50;4809228;29;20055;-92
2023/01/26 05:29:12;;;;;;;25.65;9.75;;;;;;;-9.68;69.82;100390.69;4813151;29;20063;-91
2023/01/26 05:31:38;;;;;;;34.13;11.05;;;;;;;-9.65;69.68;100378.69;4796999;29;20047;-91
2023/01/26 05:34:05;;;;;;;21.75;9.88;;;;;;;-9.70;69.30;100367.41;4779430;30;20195;-87
2023/01/26 05:36:33;;;;;;;30.63;11.07;;;;;;;-9.70;69.43;100372.56;4780937;30;20047;-91
2023/01/26 05:38:59;;;;;;;24.17;11.80;;;;;;;-9.82;69.76;100373.19;4774669;30;20050;-87
2023/01/26 05:41:26;;;;;;;33.92;14.13;;;;;;;-9.73;69.69;100372.50;4807121;29;20047;-93
2023/01/26 05:44:24;;;;;;;30.80;13.32;;;;;;;-9.81;69.31;100358.56;4805042;29;20064;-91
2023/01/26 05:46:55;;;;;;;34.70;15.07;;;;;;;-9.85;69.86;100367.13;4804005;30;20043;-91
2023/01/26 05:49:22;;;;;;;21.00;10.35;;;;;;;-9.93;69.67;100377.28;4817453;29;20054;-90
2023/01/26 05:51:49;;;;;;;51.67;16.45;;;;;;;-10.02;69.90;100354.72;4815612;29;20055;-90
2023/01/26 05:54:15;;;;;;;34.97;14.43;;;;;;;-10.00;69.61;100356.47;4799149;29;20043;-92
2023/01/26 05:56:43;;;;;;;46.08;15.48;;;;;;;-9.98;69.79;100373.75;4788132;30;20054;-93
2023/01/26 05:59:09;;;;;;;36.47;14.63;;;;;;;-9.98;69.63;100365.13;4819985;29;20119;-91
2023/01/26 06:01:35;;;;;;;35.60;14.68;;;;;;;-10.12;69.35;100352.78;4825351;29;20078;-92
2023/01/26 06:04:07;;;;;;;;;;;;;;;-9.87;69.14;100384.31;4789194;29;20073;-91
2023/01/26 06:06:42;;;;;;;18.65;9.40;;;;;;;-10.10;69.75;100365.78;4822420;29;19931;-90
2023/01/26 06:09:22;;;;;;;21.20;10.52;;;;;;;-9.96;69.47;100363.47;4811878;29;20039;-92
2023/01/26 06:12:15;;;;;;;22.58;12.10;;;;;;;-10.00;68.90;100366.81;4825645;29;20549;-92
2023/01/26 06:14:51;;;;;;;28.02;10.68;;;;;;;-10.08;69.04;100344.28;4791326;29;20072;-89
2023/01/26 06:17:17;;;;;;;32.72;11.98;;;;;;;-10.08;69.00;100336.53;4800124;29;20055;-83
2023/01/26 06:19:44;;;;;;;43.88;12.43;;;;;;;-10.04;69.02;100364.19;4781793;29;20046;-91
2023/01/26 06:22:12;;;;;;;24.33;11.60;;;;;;;-9.95;69.02;100349.69;4797449;29;20050;-91
2023/01/26 06:24:58;;;;;;;20.80;7.70;;;;;;;-10.08;68.52;100343.38;4811119;29;20067;-89
2023/01/26 06:27:24;;;;;;;18.02;7.75;;;;;;;-10.07;68.23;100360.66;4811665;29;20086;-90
2023/01/26 06:29:51;;;;;;;8.98;5.57;;;;;;;-10.20;68.64;100338.84;4790925;29;20058;-93
2023/01/26 06:32:17;;;;;;;12.07;5.75;;;;;;;-10.28;68.17;100338.75;4810108;29;20126;-89
2023/01/26 06:34:45;;;;;;;22.25;6.60;;;;;;;-10.12;68.04;100342.47;4812345;29;20400;-91
2023/01/26 06:37:12;;;;;;;13.82;6.70;;;;;;;-10.09;67.91;100352.00;4992797;24;20984;-92
2023/01/26 06:39:52;;;;;;;14.40;7.07;;;;;;;-10.09;68.01;100332.19;4925945;24;20046;-91
2023/01/26 06:42:23;;;;;;;15.15;8.18;;;;;;;-10.00;67.84;100353.88;4846469;29;20063;-91
2023/01/26 06:44:50;;;;;;;25.45;10.20;;;;;;;-9.80;68.13;100357.72;4808584;29;20046;-87
2023/01/26 06:47:17;;;;;;;21.00;9.70;;;;;;;-9.82;67.50;100336.09;4845285;29;20042;-90
2023/01/26 06:49:44;;;;;;;17.25;8.00;;;;;;;-9.88;66.80;100333.44;4839547;29;20054;-90
2023/01/26 06:52:26;;;;;;;20.73;8.43;;;;;;;-10.05;66.68;100346.91;4824000;29;20137;-88
2023/01/26 06:54:58;;;;;;;12.30;5.88;;;;;;;-10.07;67.00;100343.44;4832129;29;20073;-87
2023/01/26 06:57:59;;;;;;;12.10;6.85;;;;;;;-10.02;66.47;100344.38;4778165;30;20052;-92
2023/01/26 07:00:44;;;;;;;37.53;9.60;;;;;;;-10.16;67.02;100338.06;4829844;29;20054;-93
2023/01/26 07:03:13;;;;;;;35.63;8.88;;;;;;;-10.26;67.02;100309.50;4871758;24;20030;-89
2023/01/26 07:05:39;;;;;;;16.40;7.85;;;;;;;-10.07;66.92;100335.69;4884853;24;20091;-90
2023/01/26 07:08:07;;;;;;;20.83;8.60;;;;;;;-9.93;66.70;100341.09;4837395;29;20117;-92
2023/01/26 07:10:38;;;;;;;15.85;7.82;;;;;;;-10.02;66.65;100321.09;4823744;29;20076;-96
2023/01/26 07:13:05;;;;;;;22.63;9.98;;;;;;;-9.94;66.08;100330.72;4840220;29;20068;-91
2023/01/26 07:15:31;;;;;;;13.02;8.18;;;;;;;-9.94;66.20;100351.41;4809444;29;20058;-89
2023/01/26 07:17:58;;;;;;;19.98;10.35;;;;;;;-9.78;65.93;100353.44;4806818;29;20124;-91
2023/01/26 07:20:25;;;;;;;21.70;8.77;;;;;;;-9.68;64.78;100359.66;4804985;29;20042;-92
2023/01/26 07:22:51;;;;;;;13.73;7.10;;;;;;;-9.81;63.45;100374.09;4837080;29;20051;-93
2023/01/26 07:25:18;;;;;;;20.02;7.65;;;;;;;-9.92;63.08;100354.91;4820929;29;20046;-91
2023/01/26 07:27:44;;;;;;;28.15;6.70;;;;;;;-9.93;63.35;100348.84;4822627;29;20090;-91
2023/01/26 07:30:15;;;;;;;21.50;6.97;;;;;;;-10.34;62.77;100327.41;4806327;29;20058;-93
2023/01/26 07:32:41;;;;;;;17.08;8.07;;;;;;;-10.25;62.85;100357.75;4822581;29;20072;-90
2023/01/26 07:35:07;;;;;;;25.40;7.43;;;;;;;-10.28;63.10;100350.78;4808810;29;20153;-91
2023/01/26 07:37:33;;;;;;;6.43;4.82;;;;;;;-10.28;62.55;100350.78;4823386;29;20462;-91
2023/01/26 07:40:00;;;;;;;12.60;6.03;;;;;;;-10.34;62.50;100335.16;4839038;29;20049;-93
2023/01/26 07:42:25;;;;;;;13.73;6.72;;;;;;;-10.24;62.74;100324.13;4824143;29;20049;-91
2023/01/26 07:45:03;;;;;;;15.40;6.22;;;;;;;-10.17;62.06;100359.59;4813796;29;20058;-91
2023/01/26 07:47:33;;;;;;;13.10;5.97;;;;;;;-10.30;62.40;100332.69;4853824;29;20074;-89
2023/01/26 07:49:59;;;;;;;;;;;;;;;-10.08;62.10;100348.56;4824643;29;20093;-91
2023/01/26 07:52:25;;;;;;;7.55;5.43;;;;;;;-10.12;62.27;100334.69;4860816;29;19956;-90
2023/01/26 07:54:51;;;;;;;22.02;8.23;;;;;;;-9.89;62.10;100329.09;4829540;29;20091;-89
2023/01/26 07:57:17;;;;;;;13.70;6.60;;;;;;;-9.87;61.10;100341.22;4829982;29;20030;-94
2023/01/26 07:59:44;;;;;;;12.27;7.53;;;;;;;-9.74;61.67;100336.25;4841616;29;20125;-88
2023/01/26 08:02:10;;;;;;;10.90;6.55;;;;;;;-9.60;60.75;100333.06;4857005;29;20065;-90
2023/01/26 08:04:36;;;;;;;14.25;8.30;;;;;;;-9.41;60.54;100333.38;4843991;29;20084;-93
2023/01/26 08:07:02;;;;;;;17.73;7.80;;;;;;;-9.47;60.35;100321.22;4842235;29;20050;-88
2023/01/26 08:09:28;;;;;;;20.90;9.93;;;;;;;-9.33;59.71;100316.22;4821360;29;20382;-92
2023/01/26 08:11:57;;;;;;;9.43;5.70;;;;;;;-9.37;59.40;100309.25;4857673;29;20183;-92
2023/01/26 08:14:23;;;;;;;20.00;8.93;;;;;;;-9.19;59.37;100317.31;4823780;29;20058;-91
2023/01/26 08:16:49;;;;;;;18.25;6.85;;;;;;;-9.29;58.70;100312.84;4817944;29;20418;-90
2023/01/26 08:19:16;;;;;;;13.45;6.57;;;;;;;-9.45;58.32;100295.34;4839029;29;20070;-92
2023/01/26 08:21:42;;;;;;;10.93;6.80;;;;;;;-9.42;58.18;100319.56;4822492;29;20114;-92
2023/01/26 08:24:11;;;;;;;10.85;5.53;;;;;;;-9.48;58.27;100321.16;4830496;29;20046;-94
2023/01/26 08:26:39;;;;;;;12.03;6.07;;;;;;;-9.74;58.21;100289.69;4828711;29;20030;-91
2023/01/26 08:29:06;;;;;;;21.75;8.50;;;;;;;-9.73;58.63;100292.31;4844616;29;20114;-93
2023/01/26 08:31:32;;;;;;;14.10;7.72;;;;;;;-9.85;58.54;100284.34;4844923;29;20034;-93
2023/01/26 08:33:58;;;;;;;16.25;6.88;;;;;;;-9.94;58.75;100299.69;4847562;29;20035;-92
2023/01/26 08:36:24;;;;;;;13.95;6.63;;;;;;;-9.75;59.00;100299.16;4833700;29;20070;-95
2023/01/26 08:38:53;;;;;;;11.88;6.03;;;;;;;-9.75;58.48;100291.41;4843190;24;20145;-93
2023/01/26 08:41:19;;;;;;;14.68;6.45;;;;;;;-9.74;58.27;100298.34;4809648;29;20046;-92
2023/01/26 08:43:51;;;;;;;9.80;5.38;;;;;;;-9.75;58.75;100295.72;4775280;30;20035;-95
2023/01/26 08:46:17;;;;;;;16.27;7.68;;;;;;;-9.39;58.47;100285.09;4797721;30;20068;-95
2023/01/26 08:48:46;;;;;;;12.60;6.20;;;;;;;-9.20;57.50;100297.47;4811776;30;20027;-94
2023/01/26 08:51:13;;;;;;;16.73;7.55;;;;;;;-9.12;57.45;100282.03;4787880;30;20047;-91
2023/01/26 08:53:43;;;;;;;9.45;6.18;;;;;;;-8.85;56.91;100285.00;4774543;30;20051;-93
2023/01/26 08:56:11;;;;;;;13.38;6.05;;;;;;;-8.78;56.69;100285.94;4829826;24;20134;-92
2023/01/26 08:58:38;;;;;;;17.77;7.83;;;;;;;-8.88;56.17;100273.72;4808791;29;20051;-93
2023/01/26 09:01:06;;;;;;;13.38;6.35;;;;;;;-8.74;56.01;100256.63;4775465;30;20357;-93
2023/01/26 09:03:32;;;;;;;9.00;4.78;;;;;;;-8.79;55.76;100268.66;4801553;29;20043;-95
2023/01/26 09:06:00;;;;;;;12.38;5.28;;;;;;;-8.96;55.49;100265.84;4799016;29;20054;-92
2023/01/26 09:08:31;;;;;;;61.00;10.20;;;;;;;-8.81;56.13;100265.19;4804226;29;20051;-92
2023/01/26 09:10:57;;;;;;;9.73;4.93;;;;;;;-9.06;55.39;100249.31;4785063;30;20051;-92
2023/01/26 09:13:23;;;;;;;12.82;6.13;;;;;;;-9.20;56.09;100240.50;4767399;30;20122;-94
2023/01/26 09:15:50;;;;;;;22.30;7.32;;;;;;;-9.10;55.99;100252.72;4786345;30;20059;-94
2023/01/26 09:18:16;;;;;;;16.17;6.38;;;;;;;-8.97;55.61;100252.88;4784573;30;20051;-92
2023/01/26 09:21:08;;;;;;;7.15;4.13;;;;;;;-9.05;55.45;100260.56;4758299;30;20127;-95
2023/01/26 09:23:35;;;;;;;10.48;4.90;;;;;;;-9.17;56.10;100263.84;4772498;30;20081;-93
2023/01/26 09:26:02;;;;;;;16.90;6.68;;;;;;;-9.11;55.93;100260.44;4757641;30;20705;-93
2023/01/26 09:28:28;;;;;;;10.52;5.57;;;;;;;-9.01;55.71;100232.97;4754229;30;20060;-93
2023/01/26 09:30:54;;;;;;;9.52;5.00;;;;;;;-9.08;55.34;100251.00;4786609;30;20052;-92
2023/01/26 09:33:21;;;;;;;11.30;6.50;;;;;;;-9.09;55.44;100244.09;4757369;30;20051;-92
2023/01/26 09:35:48;;;;;;;15.63;7.22;;;;;;;-8.67;55.55;100258.44;4761850;30;20101;-90
2023/01/26 09:38:14;;;;;;;8.45;4.53;;;;;;;-8.72;54.88;100231.63;4757790;30;20090;-93
2023/01/26 09:40:50;;;;;;;14.35;5.78;;;;;;;-8.88;55.09;100227.09;4744661;30;20047;-94
2023/01/26 09:43:54;;;;;;;8.13;4.47;;;;;;;-8.97;54.78;100258.06;4766527;30;20082;-91
2023/01/26 09:46:48;;;;;;;15.75;6.50;;;;;;;-8.97;55.21;100255.47;4733326;30;20056;-92
2023/01/26 09:49:25;;;;;;;7.97;4.57;;;;;;;-8.78;55.07;100247.09;4780312;30;20052;-91
2023/01/26 09:52:11;;;;;;;6.65;4.80;;;;;;;-8.97;54.71;100229.56;4786997;30;20154;-91
2023/01/26 09:54:46;;;;;;;20.42;6.00;;;;;;;-8.94;54.98;100242.56;4802562;30;20055;-92
2023/01/26 09:57:18;;;;;;;11.60;6.03;;;;;;;-9.07;55.38;100237.19;4802025;29;20113;-92
2023/01/26 10:00:04;;;;;;;10.90;4.65;;;;;;;-8.84;55.47;100229.75;4773082;30;20056;-87
2023/01/26 10:02:55;;;;;;;5.47;3.78;;;;;;;-8.99;55.04;100218.31;4788913;30;20061;-93
2023/01/26 10:05:32;;;;;;;17.35;8.35;;;;;;;-9.23;55.33;100211.97;4773663;30;20043;-93
2023/01/26 10:08:12;;;;;;;9.95;3.65;;;;;;;-9.19;55.41;100216.31;4765634;30;20512;-91
2023/01/26 10:10:47;;;;;;;19.02;7.95;;;;;;;-9.20;55.72;100209.41;4783162;30;20059;-90
2023/01/26 10:13:15;;;;;;;10.50;6.25;;;;;;;-8.91;54.70;100216.66;4874247;24;20071;-91
2023/01/26 10:15:44;;;;;;;12.00;4.60;;;;;;;-9.13;55.37;100212.97;4821653;29;20123;-91
2023/01/26 10:18:43;;;;;;;12.00;5.95;;;;;;;-9.09;55.07;100223.38;4799953;29;20408;-91
2023/01/26 10:21:11;;;;;;;10.07;6.10;;;;;;;-8.97;55.39;100217.47;4773520;29;20054;-92
2023/01/26 10:23:46;;;;;;;15.20;7.30;;;;;;;-8.93;55.30;100202.84;4803596;29;20086;-88
2023/01/26 10:26:16;;;;;;;17.63;6.20;;;;;;;-8.77;54.77;100214.25;4784550;29;20134;-87
2023/01/26 10:28:43;;;;;;;;;;;;;;;-8.76;54.92;100222.06;4783476;29;20114;-92
2023/01/26 10:31:24;;;;;;;12.57;6.68;;;;;;;-8.84;54.56;100193.47;4808074;29;19950;-93
2023/01/26 10:34:13;;;;;;;10.20;5.13;;;;;;;-8.69;54.30;100218.66;4791850;29;20454;-93
2023/01/26 10:36:42;;;;;;;13.30;6.28;;;;;;;-8.77;54.58;100212.53;4768601;29;20051;-86
2023/01/26 10:39:10;;;;;;;16.80;6.05;;;;;;;-8.79;54.57;100196.13;4779620;29;20053;-90
2023/01/26 10:41:38;;;;;;;13.50;5.70;;;;;;;-8.68;54.05;100199.69;4800196;29;20570;-92
2023/01/26 10:44:10;;;;;;;14.85;7.70;;;;;;;-8.54;54.29;100210.19;4790372;29;20104;-92
2023/01/26 10:46:38;;;;;;;14.48;7.53;;;;;;;-8.54;54.05;100206.75;4793072;29;20176;-92
2023/01/26 10:49:07;;;;;;;15.05;7.78;;;;;;;-8.40;53.75;100220.72;4791503;29;20047;-94
2023/01/26 10:51:36;;;;;;;10.55;5.85;;;;;;;-8.44;53.18;100203.41;4778476;29;20146;-94
2023/01/26 10:54:25;;;;;;;8.33;4.40;;;;;;;-8.36;53.29;100223.31;4804385;29;20487;-91
2023/01/26 10:56:55;;;;;;;12.63;5.53;;;;;;;-8.64;53.21;100206.66;4791525;29;20392;-92
2023/01/26 10:59:46;;;;;;;14.18;7.55;;;;;;;-8.50;53.39;100203.31;4821882;29;20072;-93
2023/01/26 11:02:18;;;;;;;8.57;5.55;;;;;;;-8.57;53.53;100198.09;4802027;29;20071;-93
2023/01/26 11:05:05;;;;;;;12.90;6.35;;;;;;;-8.52;53.78;100199.88;4785814;29;20063;-94
2023/01/26 11:07:40;;;;;;;13.40;5.88;;;;;;;-8.71;53.26;100172.88;4789485;29;20058;-91
2023/01/26 11:10:23;;;;;;;13.00;5.88;;;;;;;-8.86;54.11;100176.16;4790526;29;20055;-93
2023/01/26 11:13:07;;;;;;;23.60;8.07;;;;;;;-8.76;53.53;100201.34;4811487;29;20055;-96
2023/01/26 11:15:42;;;;;;;17.52;7.40;;;;;;;-8.86;54.18;100177.03;4784762;29;20034;-94
2023/01/26 11:18:36;;;;;;;11.95;6.30;;;;;;;-8.69;53.80;100208.31;4781945;29;20066;-93
2023/01/26 11:21:10;;;;;;;12.50;6.03;;;;;;;-8.72;53.77;100191.88;4795899;30;20088;-94
2023/01/26 11:23:46;;;;;;;13.05;6.53;;;;;;;-8.72;53.81;100197.06;4796447;29;20053;-93
2023/01/26 11:26:37;;;;;;;13.55;6.13;;;;;;;-8.59;53.66;100199.78;4798192;30;20089;-92
2023/01/26 11:29:05;;;;;;;11.13;5.82;;;;;;;-8.66;53.29;100197.97;4813147;30;20051;-94
2023/01/26 11:32:02;;;;;;;14.43;6.63;;;;;;;-8.54;53.38;100202.41;4797696;29;20051;-92
2023/01/26 11:34:36;;;;;;;16.40;7.25;;;;;;;-8.49;53.32;100199.91;4776731;30;20124;-93
2023/01/26 11:37:39;;;;;;;12.48;6.10;;;;;;;-8.51;53.76;100193.81;4802956;30;20100;-92
2023/01/26 11:40:34;;;;;;;16.05;7.88;;;;;;;-8.47;53.58;100199.03;4761201;30;20051;-93
2023/01/26 11:43:17;;;;;;;12.68;6.38;;;;;;;-8.77;53.56;100183.16;4759179;30;20074;-93
2023/01/26 11:46:20;;;;;;;18.75;8.68;;;;;;;-8.76;54.12;100175.44;4798355;30;20429;-92
2023/01/26 11:49:12;;;;;;;21.02;10.32;;;;;;;-8.60;53.85;100163.50;4787823;30;20114;-92
2023/01/26 11:52:05;;;;;;;25.95;10.98;;;;;;;-8.69;53.91;100172.03;4771185;30;20594;-93
2023/01/26 11:54:50;;;;;;;24.20;11.32;;;;;;;-8.65;54.68;100170.34;4770122;30;20051;-91
2023/01/26 11:57:41;;;;;;;32.65;11.05;;;;;;;-8.75;54.21;100165.94;4796182;29;20058;-91
2023/01/26 12:00:28;;;;;;;14.95;9.88;;;;;;;-9.18;54.41;100161.09;4814086;29;20130;-90
2023/01/26 12:03:01;;;;;;;18.80;9.57;;;;;;;-9.75;55.88;100146.53;4782830;29;20108;-91
2023/01/26 12:05:42;;;;;;;20.10;9.85;;;;;;;-9.97;56.75;100139.28;4798510;29;20047;-92
2023/01/26 12:08:37;;;;;;;16.92;9.55;;;;;;;-10.46;57.97;100147.16;4783608;29;20099;-92
2023/01/26 12:11:22;;;;;;;24.48;12.32;;;;;;;-10.63;58.65;100164.06;4819131;29;20066;-90
2023/01/26 12:13:53;;;;;;;34.58;13.40;;;;;;;-10.96;59.63;100139.34;4806610;29;20055;-91
2023/01/26 12:16:42;;;;;;;26.75;11.27;;;;;;;-10.97;60.32;100154.81;4784596;29;20058;-93
2023/01/26 12:19:16;;;;;;;26.85;13.30;;;;;;;-11.15;60.64;100175.97;4763988;29;20051;-90